Time;durP1;ratioP1;P1;durP2;ratioP2;P2;SDS_P1;SDS_P2;PMS_P1;PMS_P2;Temp;Humidity;BMP_temperature;BMP_pressure;BME280_temperature;BME280_humidity;BME280_pressure;Samples;Min_cycle;Max_cycle;Signal;HPM_P1;HPM_P2
2022/06/01 00:00:56;;;;;;;;;;;15.80;91.50;;;;;;5078964;28;20294;-91
2022/06/01 00:03:24;;;;;;;;;;;15.80;91.50;;;;;;5085776;28;20379;-91
2022/06/01 00:05:53;;;;;;;;;;;15.80;91.50;;;;;;5090012;28;19928;-91
2022/06/01 00:08:21;;;;;;;;;;;15.80;91.60;;;;;;5090808;28;20579;-91
2022/06/01 00:10:48;;;;;;;;;;;15.80;91.50;;;;;;5087202;28;19924;-91
2022/06/01 00:13:15;;;;;;;;;;;15.80;91.50;;;;;;5071484;28;19924;-91
2022/06/01 00:15:42;;;;;;;;;;;15.70;91.50;;;;;;5083715;28;19931;-92
2022/06/01 00:18:09;;;;;;;;;;;15.70;91.80;;;;;;5064800;28;20318;-91
2022/06/01 00:20:38;;;;;;;;;;;15.70;91.50;;;;;;5085765;28;20182;-91
2022/06/01 00:23:06;;;;;;;;;;;15.70;91.50;;;;;;5073926;28;19932;-91
2022/06/01 00:25:33;;;;;;;;;;;15.60;91.40;;;;;;5089517;28;19955;-92
2022/06/01 00:28:00;;;;;;;;;;;15.60;91.40;;;;;;5086415;28;20006;-92
2022/06/01 00:30:28;;;;;;;;;;;15.60;91.40;;;;;;5066953;28;19924;-91
2022/06/01 00:32:55;;;;;;;;;;;15.60;91.40;;;;;;5074954;28;19924;-91
2022/06/01 00:35:22;;;;;;;;;;;15.60;91.40;;;;;;5087171;28;19932;-91
2022/06/01 00:37:51;;;;;;;;;;;15.60;91.40;;;;;;5071606;28;20066;-91
2022/06/01 00:40:19;;;;;;;;;;;15.50;91.40;;;;;;5071846;28;19924;-91
2022/06/01 00:42:49;;;;;;;;;;;15.50;91.30;;;;;;5088262;28;20281;-91
2022/06/01 00:45:17;;;;;;;;;;;15.50;91.60;;;;;;5089167;28;19938;-91
2022/06/01 00:47:44;;;;;;;;;;;15.50;91.30;;;;;;5086780;28;19971;-91
2022/06/01 00:50:12;;;;;;;;;;;15.40;91.20;;;;;;5068220;28;20015;-92
2022/06/01 00:52:45;;;;;;;;;;;15.40;91.30;;;;;;5067893;28;20436;-91
2022/06/01 00:55:16;;;;;;;;;;;15.40;91.30;;;;;;5080816;28;19978;-91
2022/06/01 00:57:44;;;;;;;;;;;15.40;91.20;;;;;;5092278;28;19924;-91
2022/06/01 01:00:14;;;;;;;;;;;15.40;91.30;;;;;;5075151;28;19924;-91
2022/06/01 01:02:41;;;;;;;;;;;15.30;91.20;;;;;;5085638;28;19925;-91
2022/06/01 01:08:00;;;;;;;;;;;15.30;91.20;;;;;;5068794;28;19939;-83
2022/06/01 01:10:33;;;;;;;;;;;15.30;91.20;;;;;;5065431;28;19925;-82
2022/06/01 01:13:05;;;;;;;;;;;15.20;91.20;;;;;;5048715;28;19932;-82
2022/06/01 01:15:36;;;;;;;;;;;15.30;91.20;;;;;;5059311;28;19925;-82
2022/06/01 01:18:08;;;;;;;;;;;15.20;91.20;;;;;;5061548;28;20197;-83
2022/06/01 01:20:36;;;;;;;;;;;15.20;91.20;;;;;;5064206;28;19935;-82
2022/06/01 01:23:25;;;;;;;;;;;15.20;91.20;;;;;;5062574;28;19924;-85
2022/06/01 01:25:56;;;;;;;;;;;15.20;91.20;;;;;;5080280;28;19955;-82
2022/06/01 01:28:26;;;;;;;;;;;15.10;91.20;;;;;;5067014;28;21270;-82
2022/06/01 01:31:04;;;;;;;;;;;15.20;91.20;;;;;;5062324;28;19931;-82
2022/06/01 01:33:33;;;;;;;;;;;15.10;91.20;;;;;;5076887;28;19948;-82
2022/06/01 01:36:05;;;;;;;;;;;15.10;91.20;;;;;;5081373;28;19924;-82
2022/06/01 01:38:45;;;;;;;;;;;15.10;91.20;;;;;;5063058;28;19925;-82
2022/06/01 01:41:19;;;;;;;;;;;15.00;91.20;;;;;;5044447;28;19924;-82
2022/06/01 01:43:50;;;;;;;;;;;15.00;91.20;;;;;;5065726;28;19932;-83
2022/06/01 01:46:18;;;;;;;;;;;15.00;91.20;;;;;;5063635;28;19933;-82
2022/06/01 01:48:48;;;;;;;;;;;15.00;91.20;;;;;;5082599;28;19939;-82
2022/06/01 01:51:22;;;;;;;;;;;15.00;91.10;;;;;;5062938;28;19921;-82
2022/06/01 01:53:50;;;;;;;;;;;14.90;91.10;;;;;;5084569;28;19971;-83
2022/06/01 01:56:26;;;;;;;;;;;14.90;91.10;;;;;;5063237;28;19933;-82
2022/06/01 01:59:08;;;;;;;;;;;14.90;91.10;;;;;;5063304;28;19925;-82
2022/06/01 02:01:40;;;;;;;;;;;14.90;91.10;;;;;;5077100;28;19925;-82
2022/06/01 02:06:03;;;;;;;;;;;14.90;91.10;;;;;;5064251;28;19979;-82
2022/06/01 02:07:04;;;;;;;;;;;14.80;91.00;;;;;;5060848;28;19933;-82
2022/06/01 02:12:41;;;;;;;;;;;14.80;91.00;;;;;;5069543;28;20454;-82
2022/06/01 02:15:14;;;;;;;;;;;14.80;91.10;;;;;;5065747;28;19929;-82
2022/06/01 02:17:49;;;;;;;;;;;14.80;91.10;;;;;;5065170;28;19924;-82
2022/06/01 02:20:20;;;;;;;;;;;14.80;91.10;;;;;;5078705;28;19931;-82
2022/06/01 02:22:48;;;;;;;;;;;14.70;91.10;;;;;;5066746;28;19928;-83
2022/06/01 02:25:18;;;;;;;;;;;14.70;91.10;;;;;;5063520;28;19930;-82
2022/06/01 02:27:51;;;;;;;;;;;14.70;91.10;;;;;;5067589;28;19925;-82
2022/06/01 02:30:23;;;;;;;;;;;14.70;91.20;;;;;;5078939;28;19951;-83
2022/06/01 02:32:51;;;;;;;;;;;14.60;91.10;;;;;;5066008;28;19973;-82
2022/06/01 02:35:22;;;;;;;;;;;14.60;91.10;;;;;;5060160;28;19928;-83
2022/06/01 02:37:56;;;;;;;;;;;14.60;91.10;;;;;;5068964;28;19954;-81
2022/06/01 02:40:31;;;;;;;;;;;14.50;91.40;;;;;;5065419;28;19933;-82
2022/06/01 02:43:00;;;;;;;;;;;14.60;91.10;;;;;;5064154;28;20017;-82
2022/06/01 02:45:30;;;;;;;;;;;14.50;91.10;;;;;;5061521;28;20444;-82
2022/06/01 02:48:00;;;;;;;;;;;14.50;91.10;;;;;;5064431;28;20003;-82
2022/06/01 02:50:31;;;;;;;;;;;14.50;91.10;;;;;;5060926;28;19929;-82
2022/06/01 02:52:59;;;;;;;;;;;14.50;91.20;;;;;;5076155;28;19983;-83
2022/06/01 02:55:31;;;;;;;;;;;14.50;91.10;;;;;;5061447;28;19924;-83
2022/06/01 02:58:03;;;;;;;;;;;14.50;91.20;;;;;;5059701;28;19931;-83
2022/06/01 03:00:37;;;;;;;;;;;14.40;91.20;;;;;;5059768;28;20362;-82
2022/06/01 03:03:07;;;;;;;;;;;14.40;91.10;;;;;;5060213;28;19929;-82
2022/06/01 03:05:36;;;;;;;;;;;14.40;91.10;;;;;;5059853;28;20442;-83
2022/06/01 03:08:04;;;;;;;;;;;14.40;91.10;;;;;;5060052;28;19932;-83
2022/06/01 03:10:36;;;;;;;;;;;14.40;91.10;;;;;;5060641;28;20383;-83
2022/06/01 03:13:05;;;;;;;;;;;14.30;91.00;;;;;;5076579;28;19932;-83
2022/06/01 03:15:33;;;;;;;;;;;14.30;91.10;;;;;;5061421;28;19932;-83
2022/06/01 03:18:02;;;;;;;;;;;14.30;91.00;;;;;;5063698;28;19940;-83
2022/06/01 03:20:34;;;;;;;;;;;14.30;91.00;;;;;;5057363;28;19950;-83
2022/06/01 03:23:04;;;;;;;;;;;14.20;91.00;;;;;;5061149;28;19933;-82
2022/06/01 03:25:32;;;;;;;;;;;14.30;91.10;;;;;;5061827;28;19940;-85
2022/06/01 03:28:00;;;;;;;;;;;14.20;91.00;;;;;;5063002;28;20306;-83
2022/06/01 03:30:37;;;;;;;;;;;14.20;91.00;;;;;;5060914;28;19932;-83
2022/06/01 03:33:07;;;;;;;;;;;14.20;91.00;;;;;;5062002;28;20395;-82
2022/06/01 03:35:36;;;;;;;;;;;14.20;91.00;;;;;;5047970;28;19936;-83
2022/06/01 03:38:07;;;;;;;;;;;14.20;91.10;;;;;;5057146;28;19928;-83
2022/06/01 03:40:38;;;;;;;;;;;14.20;91.10;;;;;;5057598;28;19932;-82
2022/06/01 03:43:08;;;;;;;;;;;14.10;91.00;;;;;;5052776;28;19929;-82
2022/06/01 03:48:23;;;;;;;;;;;14.10;91.10;;;;;;5061061;28;19925;-82
2022/06/01 03:50:52;;;;;;;;;;;14.10;91.20;;;;;;5060374;28;19971;-83
2022/06/01 03:53:29;;;;;;;;;;;14.10;91.20;;;;;;5059095;28;19928;-83
2022/06/01 03:55:57;;;;;;;;;;;14.10;91.20;;;;;;5067028;28;19951;-83
2022/06/01 03:58:25;;;;;;;;;;;14.00;91.10;;;;;;5061942;28;19951;-85
2022/06/01 04:00:55;;;;;;;;;;;14.00;91.10;;;;;;5060934;28;19932;-83
2022/06/01 04:03:30;;;;;;;;;;;13.90;91.10;;;;;;5058349;28;19925;-83
2022/06/01 04:06:01;;;;;;;;;;;14.00;91.10;;;;;;5073356;28;20011;-83
2022/06/01 04:08:32;;;;;;;;;;;14.00;91.10;;;;;;5056612;28;19960;-82
2022/06/01 04:11:00;;;;;;;;;;;14.00;91.10;;;;;;5051972;28;19931;-83
2022/06/01 04:13:28;;;;;;;;;;;13.90;91.00;;;;;;5337313;22;19951;-81
2022/06/01 04:15:57;;;;;;;;;;;13.90;91.10;;;;;;5056459;28;19978;-81
2022/06/01 04:18:24;;;;;;;;;;;13.90;91.10;;;;;;5055091;28;19933;-81
2022/06/01 04:20:53;;;;;;;;;;;13.90;91.20;;;;;;5056013;28;19925;-81
2022/06/01 04:23:20;;;;;;;;;;;13.90;91.20;;;;;;5049261;28;19932;-79
2022/06/01 04:25:47;;;;;;;;;;;13.90;91.20;;;;;;5045181;28;19925;-79
2022/06/01 04:28:19;;;;;;;;;;;13.90;91.30;;;;;;5045482;28;20716;-79
2022/06/01 04:30:47;;;;;;;;;;;13.80;91.20;;;;;;5046147;28;20283;-80
2022/06/01 04:33:15;;;;;;;;;;;13.80;91.30;;;;;;5047877;28;19924;-79
2022/06/01 04:35:48;;;;;;;;;;;13.80;91.40;;;;;;5047909;28;19925;-79
2022/06/01 04:38:18;;;;;;;;;;;13.80;91.30;;;;;;5051517;28;20632;-79
2022/06/01 04:40:51;;;;;;;;;;;13.80;91.30;;;;;;5045093;28;19955;-77
2022/06/01 04:43:20;;;;;;;;;;;13.80;91.40;;;;;;5045412;28;19937;-80
2022/06/01 04:45:50;;;;;;;;;;;13.80;91.40;;;;;;5051459;28;19972;-80
2022/06/01 04:48:18;;;;;;;;;;;13.80;91.40;;;;;;5050346;28;20508;-80
2022/06/01 04:50:46;;;;;;;;;;;13.80;91.50;;;;;;5049141;28;19933;-80
2022/06/01 04:53:16;;;;;;;;;;;13.70;91.40;;;;;;5058301;28;19935;-80
2022/06/01 04:55:44;;;;;;;;;;;13.80;91.40;;;;;;5050533;28;19925;-82
2022/06/01 04:58:11;;;;;;;;;;;13.70;91.30;;;;;;5050979;28;19924;-80
2022/06/01 05:00:39;;;;;;;;;;;13.70;91.30;;;;;;5049436;28;20398;-80
2022/06/01 05:03:07;;;;;;;;;;;13.70;91.30;;;;;;5047483;28;19933;-80
2022/06/01 05:05:37;;;;;;;;;;;13.70;91.30;;;;;;5045947;28;21501;-79
2022/06/01 05:08:05;;;;;;;;;;;13.70;91.30;;;;;;5046919;28;19924;-79
2022/06/01 05:10:32;;;;;;;;;;;13.70;91.40;;;;;;5049143;28;19924;-78
2022/06/01 05:12:59;;;;;;;;;;;13.70;91.40;;;;;;5052698;28;20659;-76
2022/06/01 05:15:26;;;;;;;;;;;13.70;91.90;;;;;;5040171;28;19933;-77
2022/06/01 05:17:53;;;;;;;;;;;13.70;93.10;;;;;;5039348;28;19925;-78
2022/06/01 05:20:20;;;;;;;;;;;13.70;92.90;;;;;;5032286;28;20464;-77
2022/06/01 05:22:48;;;;;;;;;;;13.70;93.00;;;;;;5044596;28;19983;-77
2022/06/01 05:25:15;;;;;;;;;;;13.70;93.10;;;;;;5041243;28;19929;-78
2022/06/01 05:27:42;;;;;;;;;;;13.70;92.90;;;;;;5037660;28;19975;-77
2022/06/01 05:30:13;;;;;;;;;;;13.70;92.70;;;;;;5038529;28;20406;-79
2022/06/01 05:32:40;;;;;;;;;;;13.70;92.60;;;;;;5045454;28;19925;-77
2022/06/01 05:35:07;;;;;;;;;;;13.70;92.60;;;;;;5045538;28;20599;-76
2022/06/01 05:37:34;;;;;;;;;;;13.70;92.50;;;;;;5062741;28;19925;-77
2022/06/01 05:40:03;;;;;;;;;;;13.70;92.40;;;;;;5041014;28;20019;-78
2022/06/01 05:42:30;;;;;;;;;;;13.60;92.30;;;;;;5044651;28;19964;-79
2022/06/01 05:44:57;;;;;;;;;;;13.60;92.10;;;;;;5049526;28;19932;-78
2022/06/01 05:47:25;;;;;;;;;;;13.60;92.10;;;;;;5042487;28;19947;-78
2022/06/01 05:49:52;;;;;;;;;;;13.60;92.20;;;;;;5044894;28;19935;-77
2022/06/01 05:52:19;;;;;;;;;;;13.60;92.20;;;;;;5059638;28;20476;-78
2022/06/01 05:54:46;;;;;;;;;;;13.60;92.30;;;;;;5039261;28;19929;-78
2022/06/01 05:57:15;;;;;;;;;;;13.60;92.20;;;;;;5045007;28;19933;-77
2022/06/01 05:59:41;;;;;;;;;;;13.60;92.20;;;;;;5040132;28;19932;-78
2022/06/01 06:02:09;;;;;;;;;;;13.70;92.20;;;;;;5042075;28;19928;-77
2022/06/01 06:04:36;;;;;;;;;;;13.60;92.10;;;;;;5057894;28;20299;-76
2022/06/01 06:07:03;;;;;;;;;;;13.60;92.50;;;;;;5038374;28;22095;-77
2022/06/01 06:09:30;;;;;;;;;;;13.50;92.90;;;;;;5039946;28;20587;-75
2022/06/01 06:11:57;;;;;;;;;;;13.50;93.20;;;;;;5043098;28;19928;-76
2022/06/01 06:14:25;;;;;;;;;;;13.50;93.40;;;;;;5037995;28;19932;-77
2022/06/01 06:16:52;;;;;;;;;;;13.50;93.50;;;;;;5040616;28;19928;-77
2022/06/01 06:19:20;;;;;;;;;;;13.50;94.70;;;;;;5042963;28;19925;-77
2022/06/01 06:21:47;;;;;;;;;;;13.60;94.60;;;;;;5036437;28;19960;-77
2022/06/01 06:24:15;;;;;;;;;;;13.60;94.70;;;;;;5039463;28;19995;-77
2022/06/01 06:26:43;;;;;;;;;;;13.70;95.00;;;;;;5060130;28;19935;-78
2022/06/01 06:29:11;;;;;;;;;;;13.80;95.20;;;;;;5044831;28;20395;-78
2022/06/01 06:31:40;;;;;;;;;;;13.80;95.30;;;;;;5043679;28;19939;-78
2022/06/01 06:34:07;;;;;;;;;;;13.80;95.30;;;;;;5042777;28;19953;-77
2022/06/01 06:36:34;;;;;;;;;;;13.80;95.40;;;;;;5045182;28;19943;-77
2022/06/01 06:39:01;;;;;;;;;;;13.90;95.50;;;;;;5036781;28;19928;-78
2022/06/01 06:41:28;;;;;;;;;;;13.90;95.50;;;;;;5041766;28;19931;-78
2022/06/01 06:43:55;;;;;;;;;;;13.90;95.50;;;;;;5044893;28;19925;-77
2022/06/01 06:46:23;;;;;;;;;;;14.00;95.70;;;;;;5038158;28;19931;-77
2022/06/01 06:48:52;;;;;;;;;;;14.00;95.80;;;;;;5046633;28;19929;-77
2022/06/01 06:51:19;;;;;;;;;;;14.10;96.00;;;;;;5042965;28;20354;-77
2022/06/01 06:53:46;;;;;;;;;;;14.10;95.90;;;;;;5044204;28;19928;-78
2022/06/01 06:56:14;;;;;;;;;;;14.10;95.80;;;;;;5043863;28;19932;-78
2022/06/01 06:58:41;;;;;;;;;;;14.10;95.90;;;;;;5046092;28;20607;-79
2022/06/01 07:01:08;;;;;;;;;;;14.10;95.90;;;;;;5038174;28;19925;-78
2022/06/01 07:03:35;;;;;;;;;;;14.10;95.80;;;;;;5039421;28;19951;-78
2022/06/01 07:06:11;;;;;;;;;;;14.10;95.90;;;;;;5042391;28;19940;-77
2022/06/01 07:08:39;;;;;;;;;;;14.20;95.90;;;;;;5058352;28;20318;-78
2022/06/01 07:11:06;;;;;;;;;;;14.10;95.90;;;;;;5036278;28;19976;-78
2022/06/01 07:13:33;;;;;;;;;;;14.20;95.90;;;;;;5037350;28;19924;-78
2022/06/01 07:16:01;;;;;;;;;;;14.20;95.90;;;;;;5035365;28;20387;-77
2022/06/01 07:18:29;;;;;;;;;;;14.20;95.90;;;;;;5064504;22;19939;-81
2022/06/01 07:20:56;;;;;;;;;;;14.20;95.90;;;;;;5065595;28;19928;-80
2022/06/01 07:23:25;;;;;;;;;;;14.30;96.00;;;;;;5053501;28;19931;-80
2022/06/01 07:25:52;;;;;;;;;;;14.30;96.20;;;;;;5068190;28;19940;-80
2022/06/01 07:28:21;;;;;;;;;;;14.30;96.20;;;;;;5079061;28;19959;-81
2022/06/01 07:30:49;;;;;;;;;;;14.30;96.40;;;;;;5067176;28;20062;-81
2022/06/01 07:33:16;;;;;;;;;;;14.40;96.60;;;;;;5062832;28;19925;-81
2022/06/01 07:35:42;;;;;;;;;;;14.40;96.80;;;;;;5069468;28;19940;-81
2022/06/01 07:43:40;;;;;;;;;;;14.50;97.00;;;;;;5066559;28;19925;-81
2022/06/01 07:46:07;;;;;;;;;;;14.50;97.20;;;;;;5078985;28;19924;-80
2022/06/01 07:48:34;;;;;;;;;;;14.50;97.40;;;;;;5065797;28;20314;-80
2022/06/01 07:51:01;;;;;;;;;;;14.50;97.50;;;;;;5065094;28;20369;-80
2022/06/01 07:53:28;;;;;;;;;;;14.60;97.50;;;;;;5061696;28;19929;-80
2022/06/01 07:55:56;;;;;;;;;;;14.50;97.30;;;;;;5063900;28;20371;-81
2022/06/01 07:58:23;;;;;;;;;;;14.60;97.80;;;;;;5070657;28;19929;-81
2022/06/01 08:00:50;;;;;;;;;;;14.60;97.90;;;;;;5065975;28;19987;-80
2022/06/01 08:03:17;;;;;;;;;;;14.70;98.00;;;;;;5066626;28;19939;-81
2022/06/01 08:05:44;;;;;;;;;;;14.70;98.10;;;;;;5067404;28;19925;-81
2022/06/01 08:08:11;;;;;;;;;;;14.70;98.20;;;;;;5064209;28;19936;-81
2022/06/01 08:10:38;;;;;;;;;;;14.70;98.20;;;;;;5066268;28;19932;-81
2022/06/01 08:13:09;;;;;;;;;;;14.70;98.40;;;;;;5070830;28;19931;-81
2022/06/01 08:15:38;;;;;;;;;;;14.70;98.10;;;;;;5065722;28;19924;-81
2022/06/01 08:18:05;;;;;;;;;;;14.80;98.50;;;;;;5083459;28;19925;-80
2022/06/01 08:20:32;;;;;;;;;;;14.80;98.50;;;;;;5067567;28;19925;-81
2022/06/01 08:23:00;;;;;;;;;;;14.80;98.20;;;;;;5068403;28;19925;-80
2022/06/01 08:25:27;;;;;;;;;;;14.80;98.50;;;;;;5063053;28;19925;-80
2022/06/01 08:27:54;;;;;;;;;;;14.80;98.40;;;;;;5085628;28;20026;-80
2022/06/01 08:30:23;;;;;;;;;;;14.80;98.50;;;;;;5064335;28;19936;-81
2022/06/01 08:32:51;;;;;;;;;;;14.90;98.60;;;;;;5066133;28;20066;-80
2022/06/01 08:35:19;;;;;;;;;;;14.90;98.30;;;;;;5072768;28;20019;-80
2022/06/01 08:37:46;;;;;;;;;;;14.90;98.50;;;;;;5066955;28;19932;-80
2022/06/01 08:40:14;;;;;;;;;;;14.90;98.30;;;;;;5068537;28;20029;-80
2022/06/01 08:42:44;;;;;;;;;;;14.90;98.30;;;;;;5074703;28;19924;-80
2022/06/01 08:45:12;;;;;;;;;;;15.00;98.20;;;;;;5071818;28;19924;-80
2022/06/01 08:47:41;;;;;;;;;;;15.00;98.30;;;;;;5071702;28;19936;-80
2022/06/01 08:50:11;;;;;;;;;;;15.00;98.40;;;;;;5061307;28;19944;-78
2022/06/01 08:52:38;;;;;;;;;;;15.10;98.60;;;;;;5068436;28;20616;-79
2022/06/01 08:55:06;;;;;;;;;;;15.30;98.20;;;;;;5085299;28;19944;-79
2022/06/01 08:57:47;;;;;;;;;;;15.30;97.90;;;;;;5067049;28;19924;-79
2022/06/01 09:00:15;;;;;;;;;;;15.30;97.80;;;;;;5066044;28;19963;-79
2022/06/01 09:02:49;;;;;;;;;;;15.30;97.60;;;;;;5064953;28;19974;-79
2022/06/01 09:05:18;;;;;;;;;;;15.30;97.80;;;;;;5066313;28;19940;-79
2022/06/01 09:07:48;;;;;;;;;;;15.30;97.50;;;;;;5066644;28;19924;-79
2022/06/01 09:10:37;;;;;;;;;;;15.30;97.60;;;;;;5066163;28;19925;-79
2022/06/01 09:13:07;;;;;;;;;;;15.30;97.70;;;;;;5066275;28;19975;-79
2022/06/01 09:15:42;;;;;;;;;;;15.30;97.50;;;;;;5073142;28;19959;-79
2022/06/01 09:18:11;;;;;;;;;;;15.40;97.90;;;;;;5064162;28;19954;-79
2022/06/01 09:23:23;;;;;;;;;;;15.40;97.80;;;;;;5063252;28;19928;-79
2022/06/01 09:25:51;;;;;;;;;;;15.40;97.80;;;;;;5078883;28;19933;-79
2022/06/01 09:28:20;;;;;;;;;;;15.50;97.80;;;;;;5067224;28;19941;-79
2022/06/01 09:30:50;;;;;;;;;;;15.50;97.80;;;;;;5065231;28;20036;-79
2022/06/01 09:33:23;;;;;;;;;;;15.60;97.50;;;;;;5069090;28;20298;-79
2022/06/01 09:35:58;;;;;;;;;;;15.50;97.20;;;;;;5066763;28;19928;-79
2022/06/01 09:38:35;;;;;;;;;;;15.60;97.20;;;;;;5063991;28;19974;-79
2022/06/01 09:41:03;;;;;;;;;;;15.60;97.00;;;;;;5067997;28;19939;-79
2022/06/01 09:43:29;;;;;;;;;;;15.60;97.10;;;;;;5082293;28;19932;-79
2022/06/01 09:45:56;;;;;;;;;;;15.70;96.70;;;;;;5065035;28;19955;-79
2022/06/01 09:48:27;;;;;;;;;;;15.70;96.60;;;;;;5080207;28;19932;-79
2022/06/01 09:51:12;;;;;;;;;;;15.70;96.40;;;;;;5077896;28;19931;-80
2022/06/01 09:53:41;;;;;;;;;;;15.80;96.10;;;;;;5075552;28;19943;-79
2022/06/01 09:56:08;;;;;;;;;;;15.80;95.90;;;;;;5099045;28;20465;-78
2022/06/01 10:06:54;;;;;;;;;;;16.00;95.70;;;;;;5070734;28;19924;-80
2022/06/01 10:09:22;;;;;;;;;;;16.00;95.80;;;;;;5059697;28;19928;-82
2022/06/01 10:11:51;;;;;;;;;;;16.00;95.70;;;;;;5064174;28;19929;-80
2022/06/01 10:14:19;;;;;;;;;;;16.00;95.80;;;;;;5067850;28;19978;-81
2022/06/01 10:17:01;;;;;;;;;;;16.10;95.90;;;;;;5063361;28;19932;-79
2022/06/01 10:19:32;;;;;;;;;;;16.10;95.80;;;;;;5063622;28;19930;-81
2022/06/01 10:22:02;;;;;;;;;;;16.40;95.80;;;;;;5075874;28;19978;-80
2022/06/01 10:24:31;;;;;;;;;;;16.60;95.30;;;;;;5066858;28;19943;-80
2022/06/01 10:27:00;;;;;;;;;;;16.70;95.70;;;;;;5065626;28;20207;-81
2022/06/01 10:29:31;;;;;;;;;;;16.90;95.10;;;;;;5072066;28;19996;-80
2022/06/01 10:32:01;;;;;;;;;;;16.80;94.90;;;;;;5069467;28;19928;-80
2022/06/01 10:34:34;;;;;;;;;;;16.70;95.20;;;;;;5081756;28;20468;-84
2022/06/01 10:37:03;;;;;;;;;;;16.60;95.10;;;;;;5068736;28;20410;-80
2022/06/01 10:39:32;;;;;;;;;;;16.60;95.20;;;;;;5071494;28;19936;-79
2022/06/01 10:42:04;;;;;;;;;;;16.60;95.20;;;;;;5066615;28;19925;-81
2022/06/01 10:44:35;;;;;;;;;;;16.60;95.00;;;;;;5078801;28;19924;-80
2022/06/01 10:47:05;;;;;;;;;;;16.60;94.80;;;;;;5066787;28;19924;-80
2022/06/01 10:49:40;;;;;;;;;;;16.60;94.70;;;;;;5071517;28;19924;-79
2022/06/01 10:52:14;;;;;;;;;;;16.60;94.70;;;;;;5071061;28;19940;-83
2022/06/01 10:54:45;;;;;;;;;;;16.70;94.80;;;;;;5084124;28;19928;-80
2022/06/01 10:57:16;;;;;;;;;;;16.70;94.40;;;;;;5064285;28;19925;-78
2022/06/01 10:59:43;;;;;;;;;;;16.70;94.60;;;;;;5081411;28;20406;-80
2022/06/01 11:02:17;;;;;;;;;;;16.70;94.50;;;;;;5064640;28;20007;-82
2022/06/01 11:04:55;;;;;;;;;;;16.70;94.70;;;;;;5081584;28;19975;-82
2022/06/01 11:07:31;;;;;;;;;;;16.80;94.60;;;;;;5054545;28;19930;-86
2022/06/01 11:10:01;;;;;;;;;;;16.80;94.00;;;;;;5082989;28;19963;-80
2022/06/01 11:12:32;;;;;;;;;;;16.90;93.60;;;;;;5051556;28;19940;-79
2022/06/01 11:15:06;;;;;;;;;;;16.90;93.70;;;;;;5061332;28;19925;-82
2022/06/01 11:17:36;;;;;;;;;;;17.00;94.00;;;;;;5058345;28;19935;-83
2022/06/01 11:20:15;;;;;;;;;;;16.90;94.00;;;;;;5051778;28;19932;-83
2022/06/01 11:22:52;;;;;;;;;;;17.00;93.20;;;;;;5058113;28;20035;-83
2022/06/01 11:25:20;;;;;;;;;;;17.00;93.20;;;;;;5048488;28;19929;-79
2022/06/01 11:27:53;;;;;;;;;;;17.00;92.80;;;;;;5081017;28;19970;-82
2022/06/01 11:30:21;;;;;;;;;;;17.10;92.90;;;;;;5065108;28;19976;-82
2022/06/01 11:32:51;;;;;;;;;;;17.10;92.90;;;;;;5067310;28;19924;-83
2022/06/01 11:35:23;;;;;;;;;;;17.10;92.30;;;;;;5063186;28;19938;-81
2022/06/01 11:37:53;;;;;;;;;;;17.10;92.40;;;;;;5066657;28;20239;-82
2022/06/01 11:40:25;;;;;;;;;;;17.20;92.90;;;;;;5066749;28;19928;-82
2022/06/01 11:42:55;;;;;;;;;;;17.20;92.80;;;;;;5066161;28;19932;-82
2022/06/01 11:45:23;;;;;;;;;;;17.20;91.90;;;;;;5077403;28;19991;-82
2022/06/01 11:47:51;;;;;;;;;;;17.20;91.50;;;;;;5060492;28;19932;-81
2022/06/01 11:50:18;;;;;;;;;;;;;;;;;;5069756;28;19935;-83
2022/06/01 11:52:47;;;;;;;;;;;17.30;91.80;;;;;;5061890;28;19986;-85
2022/06/01 11:55:22;;;;;;;;;;;17.30;92.00;;;;;;5062602;28;19929;-84
2022/06/01 11:57:52;;;;;;;;;;;17.40;91.70;;;;;;5062232;28;19967;-84
2022/06/01 12:00:32;;;;;;;;;;;;;;;;;;;;;
2022/06/01 12:03:24;;;;;;;;;;;17.40;91.40;;;;;;5068191;28;19932;-91
2022/06/01 12:06:02;;;;;;;;;;;17.50;91.70;;;;;;5068768;28;19925;-91
2022/06/01 12:08:36;;;;;;;;;;;17.50;91.20;;;;;;5076240;28;19974;-91
2022/06/01 12:11:04;;;;;;;;;;;17.50;91.30;;;;;;5056627;28;21115;-90
2022/06/01 12:13:32;;;;;;;;;;;17.60;90.80;;;;;;5066196;28;19932;-90
2022/06/01 12:16:09;;;;;;;;;;;17.60;90.90;;;;;;5069097;28;19925;-90
2022/06/01 12:18:37;;;;;;;;;;;17.60;91.10;;;;;;5075028;28;19978;-92
2022/06/01 12:21:28;;;;;;;;;;;17.70;91.20;;;;;;5063025;28;20662;-91
2022/06/01 12:29:37;;;;;;;;;;;17.70;89.50;;;;;;5054651;28;19998;-91
2022/06/01 12:32:10;;;;;;;;;;;17.80;90.10;;;;;;5044459;28;19929;-91
2022/06/01 12:34:40;;;;;;;;;;;17.80;90.00;;;;;;5067217;28;19928;-90
2022/06/01 12:37:09;;;;;;;;;;;17.80;89.80;;;;;;5066919;28;19924;-90
2022/06/01 12:39:43;;;;;;;;;;;17.90;90.20;;;;;;5067885;28;19928;-90
2022/06/01 12:42:12;;;;;;;;;;;17.90;90.40;;;;;;5070698;28;19925;-91
2022/06/01 12:44:41;;;;;;;;;;;17.90;90.20;;;;;;5051184;28;20495;-91
2022/06/01 12:47:08;;;;;;;;;;;18.00;90.10;;;;;;5047269;28;19932;-90
2022/06/01 12:49:37;;;;;;;;;;;18.00;90.00;;;;;;5052809;28;19930;-90
2022/06/01 12:52:05;;;;;;;;;;;18.00;89.80;;;;;;5047968;28;19932;-90
2022/06/01 12:54:33;;;;;;;;;;;18.00;89.50;;;;;;5074085;28;19975;-90
2022/06/01 12:57:01;;;;;;;;;;;18.10;89.80;;;;;;5068621;28;19944;-91
2022/06/01 12:59:29;;;;;;;;;;;18.10;90.10;;;;;;5062086;28;19960;-92
2022/06/01 13:01:59;;;;;;;;;;;18.10;89.20;;;;;;5048284;28;19984;-90
2022/06/01 13:04:27;;;;;;;;;;;18.10;88.40;;;;;;5067107;28;19951;-90
2022/06/01 13:06:55;;;;;;;;;;;18.20;88.00;;;;;;5065172;28;19929;-91
2022/06/01 13:09:23;;;;;;;;;;;;;;;;;;5046295;28;20402;-92
2022/06/01 13:11:57;;;;;;;;;;;18.20;87.90;;;;;;5072159;28;19943;-90
2022/06/01 13:14:26;;;;;;;;;;;18.30;88.90;;;;;;5050191;28;19924;-92
2022/06/01 13:16:53;;;;;;;;;;;18.30;89.40;;;;;;5052117;28;19967;-91
2022/06/01 13:19:21;;;;;;;;;;;18.30;88.00;;;;;;5110680;22;20306;-77
2022/06/01 13:21:52;;;;;;;;;;;18.30;88.30;;;;;;5068562;28;19925;-77
2022/06/01 13:24:19;;;;;;;;;;;18.40;89.00;;;;;;5057717;28;20009;-77
2022/06/01 13:26:47;;;;;;;;;;;18.30;88.70;;;;;;5055540;28;20031;-77
2022/06/01 13:29:17;;;;;;;;;;;18.40;87.60;;;;;;5033812;28;19939;-78
2022/06/01 13:31:48;;;;;;;;;;;18.40;87.40;;;;;;5056841;28;19926;-78
2022/06/01 13:34:20;;;;;;;;;;;18.50;87.50;;;;;;5061240;28;20351;-77
2022/06/01 13:36:48;;;;;;;;;;;18.50;87.20;;;;;;5043237;28;19924;-79
2022/06/01 13:39:17;;;;;;;;;;;18.40;85.80;;;;;;5041916;28;19925;-76
2022/06/01 13:41:53;;;;;;;;;;;18.40;86.80;;;;;;5053846;28;20038;-77
2022/06/01 13:44:39;;;;;;;;;;;18.40;86.90;;;;;;5038822;28;19929;-78
2022/06/01 13:47:08;;;;;;;;;;;18.40;87.20;;;;;;5039701;28;20316;-78
2022/06/01 13:49:35;;;;;;;;;;;18.50;88.10;;;;;;5054587;28;19924;-78
2022/06/01 13:52:04;;;;;;;;;;;18.50;87.80;;;;;;5049912;28;19933;-77
2022/06/01 13:54:34;;;;;;;;;;;18.50;88.00;;;;;;5062354;28;19929;-77
2022/06/01 13:57:03;;;;;;;;;;;18.50;87.80;;;;;;5056859;28;20796;-77
2022/06/01 13:59:32;;;;;;;;;;;18.50;87.80;;;;;;5064144;28;19950;-77
2022/06/01 14:02:01;;;;;;;;;;;18.50;87.60;;;;;;5059233;28;19963;-77
2022/06/01 14:04:31;;;;;;;;;;;18.60;87.80;;;;;;5062307;28;19978;-77
2022/06/01 14:07:03;;;;;;;;;;;18.50;88.10;;;;;;5039938;28;19925;-78
2022/06/01 14:09:31;;;;;;;;;;;18.50;88.40;;;;;;5041734;28;19951;-77
2022/06/01 14:12:00;;;;;;;;;;;18.50;88.40;;;;;;5058879;28;19925;-77
2022/06/01 14:14:28;;;;;;;;;;;18.50;88.60;;;;;;5032399;28;21417;-78
2022/06/01 14:16:57;;;;;;;;;;;18.40;88.40;;;;;;5053249;28;19924;-77
2022/06/01 14:19:24;;;;;;;;;;;18.50;88.20;;;;;;5056029;28;22690;-74
2022/06/01 14:21:52;;;;;;;;;;;18.50;88.60;;;;;;5061428;28;19928;-75
2022/06/01 14:24:20;;;;;;;;;;;18.50;88.40;;;;;;5052900;28;20001;-76
2022/06/01 14:29:31;;;;;;;;;;;18.50;87.70;;;;;;5058879;28;19925;-79
2022/06/01 14:31:59;;;;;;;;;;;18.60;88.10;;;;;;5052359;28;19932;-78
2022/06/01 14:34:27;;;;;;;;;;;18.60;88.10;;;;;;5060483;28;20280;-78
2022/06/01 14:36:58;;;;;;;;;;;18.60;88.30;;;;;;5042445;28;19960;-78
2022/06/01 14:39:25;;;;;;;;;;;18.50;87.40;;;;;;5042159;28;20019;-78
2022/06/01 14:41:52;;;;;;;;;;;18.60;88.10;;;;;;5055897;28;19929;-79
2022/06/01 14:44:21;;;;;;;;;;;18.60;88.40;;;;;;5062307;28;20015;-78
2022/06/01 14:46:48;;;;;;;;;;;18.60;88.60;;;;;;5046131;28;20477;-79
2022/06/01 14:49:17;;;;;;;;;;;18.60;88.60;;;;;;5062154;28;20384;-78
2022/06/01 14:51:47;;;;;;;;;;;18.60;88.30;;;;;;5036030;28;19955;-78
2022/06/01 14:54:15;;;;;;;;;;;18.60;88.40;;;;;;5060197;28;19935;-78
2022/06/01 14:56:42;;;;;;;;;;;18.60;87.90;;;;;;5060733;28;20416;-78
2022/06/01 14:59:09;;;;;;;;;;;18.60;88.40;;;;;;5056694;28;19937;-78
2022/06/01 15:01:39;;;;;;;;;;;18.60;88.50;;;;;;5058335;28;19924;-78
2022/06/01 15:04:07;;;;;;;;;;;18.60;88.40;;;;;;5045898;28;19925;-78
2022/06/01 15:06:34;;;;;;;;;;;18.60;88.00;;;;;;5058889;28;19939;-79